Lake Sumner, New Mexico
Current Conditions -  °F | °C
As of 5:56 AM on Thursday 30 Oct 2014 (Local Time) from K4MR Reporting Station
Clear Clear  
Wind Chill: 52°   Ceiling: Unl
Heat Index: 52°   Visibility: 10mi
Dew Point: 33°   Wind: 15mph
Humidity: 48%   Direction: 250°WSW
Pressure: 30.17"   Gusts: NA
Location:  34.3001°N, 104.256°W
Report Text: K4MR 301156Z AUTO 25013KT 10SM CLR 11/00 A3017 RMK AO2 SLP180 T01100003 10124 20106 52011
Loading
Personal Weather Stations






























Interactive Weather Map
Tropical Storm Tracking
New forecast layout! Learn more

10-Day Weather Forecast

Advertisements
Track Severe Weather on mobile